Avon, Maine
Current Conditions -  °F | °C
As of 9:15 AM on Sunday 23 Nov 2014 (Local Time) from KWVL Reporting Station
Clear Clear  
Wind Chill: 35°   Ceiling: Unl
Heat Index: 41°   Visibility: 10mi
Dew Point: 27°   Wind: 9mph
Humidity: 57%   Direction: 200°SSW
Pressure: 30.02"   Gusts: NA
Location:  44.8921°N, 70.379°W
Report Text: KWVL 231415Z 20008KT 10SM CLR 05/M03 A3002 RMK AO1
Loading
Personal Weather Stations






























Interactive Weather Map New forecast layout! Learn more

10-Day Weather Forecast

Advertisements
Track Severe Weather on mobile